sensor_id;sensor_type;location;lat;lon;timestamp;pressure;altitude;pressure_sealevel;temperature;humidity
16595;BME280;8410;52.532;13.336;2023-03-23T00:01:27;100121.50;;;15.59;66.31
16595;BME280;8410;52.532;13.336;2023-03-23T00:03:56;100122.75;;;15.85;65.68
16595;BME280;8410;52.532;13.336;2023-03-23T00:06:24;100112.94;;;15.53;66.55
16595;BME280;8410;52.532;13.336;2023-03-23T00:08:54;100108.63;;;15.53;66.99
16595;BME280;8410;52.532;13.336;2023-03-23T00:11:26;100106.31;;;15.38;67.20
16595;BME280;8410;52.532;13.336;2023-03-23T00:13:55;100094.47;;;15.71;66.38
16595;BME280;8410;52.532;13.336;2023-03-23T00:16:27;100102.50;;;15.57;67.25
16595;BME280;8410;52.532;13.336;2023-03-23T00:18:57;100113.66;;;15.62;65.86
16595;BME280;8410;52.532;13.336;2023-03-23T00:21:26;100109.31;;;15.63;66.47
16595;BME280;8410;52.532;13.336;2023-03-23T00:24:00;100100.66;;;15.64;65.98
16595;BME280;8410;52.532;13.336;2023-03-23T00:26:27;100106.44;;;15.80;66.23
16595;BME280;8410;52.532;13.336;2023-03-23T00:28:55;100104.91;;;15.70;66.02
16595;BME280;8410;52.532;13.336;2023-03-23T00:31:21;100090.13;;;15.75;66.42
16595;BME280;8410;52.532;13.336;2023-03-23T00:33:48;100095.69;;;15.52;66.79
16595;BME280;8410;52.532;13.336;2023-03-23T00:36:14;100088.28;;;15.32;66.71
16595;BME280;8410;52.532;13.336;2023-03-23T00:38:43;100090.69;;;15.41;67.32
16595;BME280;8410;52.532;13.336;2023-03-23T00:41:10;100086.00;;;15.61;66.77
16595;BME280;8410;52.532;13.336;2023-03-23T00:43:37;100082.56;;;15.11;67.71
16595;BME280;8410;52.532;13.336;2023-03-23T00:46:04;100072.34;;;15.50;67.43
16595;BME280;8410;52.532;13.336;2023-03-23T00:48:35;100071.03;;;15.28;68.06
16595;BME280;8410;52.532;13.336;2023-03-23T00:51:06;100071.03;;;15.28;67.95
16595;BME280;8410;52.532;13.336;2023-03-23T00:53:37;100074.47;;;15.28;67.92
16595;BME280;8410;52.532;13.336;2023-03-23T00:56:04;100059.88;;;15.24;67.68
16595;BME280;8410;52.532;13.336;2023-03-23T00:58:32;100063.28;;;15.26;67.61
16595;BME280;8410;52.532;13.336;2023-03-23T01:00:59;100047.69;;;15.29;67.27
16595;BME280;8410;52.532;13.336;2023-03-23T01:03:25;100046.66;;;15.38;67.97
16595;BME280;8410;52.532;13.336;2023-03-23T01:05:53;100051.19;;;15.27;67.75
16595;BME280;8410;52.532;13.336;2023-03-23T01:08:20;100048.47;;;15.33;67.14
16595;BME280;8410;52.532;13.336;2023-03-23T01:10:47;100049.38;;;15.32;67.11
16595;BME280;8410;52.532;13.336;2023-03-23T01:13:14;100048.53;;;15.30;67.42
16595;BME280;8410;52.532;13.336;2023-03-23T01:15:42;100043.34;;;15.30;67.10
16595;BME280;8410;52.532;13.336;2023-03-23T01:18:10;100046.19;;;15.16;67.37
16595;BME280;8410;52.532;13.336;2023-03-23T01:20:37;100057.38;;;15.18;67.52
16595;BME280;8410;52.532;13.336;2023-03-23T01:23:04;100043.50;;;15.20;67.80
16595;BME280;8410;52.532;13.336;2023-03-23T01:25:34;100036.44;;;15.29;67.32
16595;BME280;8410;52.532;13.336;2023-03-23T01:28:00;100037.38;;;15.25;66.73
16595;BME280;8410;52.532;13.336;2023-03-23T01:30:27;100036.56;;;15.22;67.31
16595;BME280;8410;52.532;13.336;2023-03-23T01:32:55;100023.13;;;14.99;68.24
16595;BME280;8410;52.532;13.336;2023-03-23T01:35:21;100026.16;;;15.24;67.61
16595;BME280;8410;52.532;13.336;2023-03-23T01:37:48;100029.75;;;15.15;67.84
16595;BME280;8410;52.532;13.336;2023-03-23T01:40:15;100033.09;;;15.24;66.98
16595;BME280;8410;52.532;13.336;2023-03-23T01:42:42;100039.94;;;15.28;67.61
16595;BME280;8410;52.532;13.336;2023-03-23T01:45:30;100036.81;;;15.07;68.51
16595;BME280;8410;52.532;13.336;2023-03-23T01:48:13;100028.00;;;15.17;67.98
16595;BME280;8410;52.532;13.336;2023-03-23T01:50:47;100028.94;;;14.62;68.99
16595;BME280;8410;52.532;13.336;2023-03-23T01:53:16;100022.66;;;14.77;69.51
16595;BME280;8410;52.532;13.336;2023-03-23T01:55:44;100012.72;;;15.02;68.41
16595;BME280;8410;52.532;13.336;2023-03-23T01:58:14;100010.50;;;15.30;67.63
16595;BME280;8410;52.532;13.336;2023-03-23T02:00:42;100017.16;;;15.42;67.04
16595;BME280;8410;52.532;13.336;2023-03-23T02:03:11;100006.78;;;15.42;67.07
16595;BME280;8410;52.532;13.336;2023-03-23T02:05:41;100008.63;;;15.37;67.13
16595;BME280;8410;52.532;13.336;2023-03-23T02:08:09;100005.88;;;15.44;66.56
16595;BME280;8410;52.532;13.336;2023-03-23T02:10:38;100005.16;;;15.38;66.77
16595;BME280;8410;52.532;13.336;2023-03-23T02:13:06;100012.34;;;15.24;67.13
16595;BME280;8410;52.532;13.336;2023-03-23T02:15:43;100006.53;;;15.09;67.70
16595;BME280;8410;52.532;13.336;2023-03-23T02:18:26;100007.75;;;15.38;66.99
16595;BME280;8410;52.532;13.336;2023-03-23T02:21:17;100000.09;;;15.32;67.34
16595;BME280;8410;52.532;13.336;2023-03-23T02:24:03;99999.19;;;15.34;66.86
16595;BME280;8410;52.532;13.336;2023-03-23T02:26:44;99991.75;;;15.14;67.52
16595;BME280;8410;52.532;13.336;2023-03-23T02:29:32;99982.69;;;15.37;66.79
16595;BME280;8410;52.532;13.336;2023-03-23T02:32:10;99977.19;;;15.52;66.03
16595;BME280;8410;52.532;13.336;2023-03-23T02:34:41;99991.91;;;15.52;66.24
16595;BME280;8410;52.532;13.336;2023-03-23T02:37:12;99991.84;;;15.55;66.33
16595;BME280;8410;52.532;13.336;2023-03-23T02:39:43;99999.84;;;15.44;67.05
16595;BME280;8410;52.532;13.336;2023-03-23T02:42:13;100003.44;;;15.37;66.19
16595;BME280;8410;52.532;13.336;2023-03-23T02:44:44;100009.56;;;15.33;66.80
16595;BME280;8410;52.532;13.336;2023-03-23T02:47:14;100007.53;;;15.02;68.91
16595;BME280;8410;52.532;13.336;2023-03-23T02:49:46;100004.97;;;15.47;68.85
16595;BME280;8410;52.532;13.336;2023-03-23T02:52:17;99996.38;;;15.45;69.48
16595;BME280;8410;52.532;13.336;2023-03-23T02:54:47;99990.13;;;15.10;70.20
16595;BME280;8410;52.532;13.336;2023-03-23T02:57:14;99981.75;;;15.41;69.88
16595;BME280;8410;52.532;13.336;2023-03-23T02:59:41;99985.88;;;15.51;70.20
16595;BME280;8410;52.532;13.336;2023-03-23T03:02:10;99976.22;;;15.59;69.32
16595;BME280;8410;52.532;13.336;2023-03-23T03:04:41;99979.84;;;15.04;71.80
16595;BME280;8410;52.532;13.336;2023-03-23T03:07:54;99973.78;;;15.50;70.33
16595;BME280;8410;52.532;13.336;2023-03-23T03:10:26;99977.69;;;15.26;70.82
16595;BME280;8410;52.532;13.336;2023-03-23T03:12:57;99973.84;;;15.47;70.16
16595;BME280;8410;52.532;13.336;2023-03-23T03:15:29;99969.50;;;15.49;70.21
16595;BME280;8410;52.532;13.336;2023-03-23T03:18:01;99977.34;;;15.46;69.96
16595;BME280;8410;52.532;13.336;2023-03-23T03:20:31;99974.69;;;15.49;69.92
16595;BME280;8410;52.532;13.336;2023-03-23T03:23:00;99975.75;;;15.39;70.66
16595;BME280;8410;52.532;13.336;2023-03-23T03:25:28;99973.84;;;15.47;69.45
16595;BME280;8410;52.532;13.336;2023-03-23T03:27:55;99974.03;;;15.38;69.56
16595;BME280;8410;52.532;13.336;2023-03-23T03:30:25;99986.38;;;15.25;69.64
16595;BME280;8410;52.532;13.336;2023-03-23T03:32:53;99981.47;;;15.11;69.64
16595;BME280;8410;52.532;13.336;2023-03-23T03:35:21;99976.97;;;14.71;71.88
16595;BME280;8410;52.532;13.336;2023-03-23T03:37:49;99987.53;;;15.10;71.50
16595;BME280;8410;52.532;13.336;2023-03-23T03:40:20;99988.53;;;15.48;71.32
16595;BME280;8410;52.532;13.336;2023-03-23T03:42:47;99981.19;;;15.27;71.11
16595;BME280;8410;52.532;13.336;2023-03-23T03:45:16;99988.19;;;15.21;71.57
16595;BME280;8410;52.532;13.336;2023-03-23T03:47:43;99978.53;;;15.28;72.21
16595;BME280;8410;52.532;13.336;2023-03-23T03:50:09;99983.13;;;15.14;72.42
16595;BME280;8410;52.532;13.336;2023-03-23T03:52:36;99973.09;;;14.97;73.29
16595;BME280;8410;52.532;13.336;2023-03-23T03:55:04;99985.03;;;15.04;73.57
16595;BME280;8410;52.532;13.336;2023-03-23T03:57:33;99974.66;;;15.04;74.30
16595;BME280;8410;52.532;13.336;2023-03-23T04:00:00;99984.16;;;15.05;74.74
16595;BME280;8410;52.532;13.336;2023-03-23T04:02:37;99982.81;;;14.83;75.15
16595;BME280;8410;52.532;13.336;2023-03-23T04:05:05;99982.44;;;15.04;73.81
16595;BME280;8410;52.532;13.336;2023-03-23T04:07:31;99977.63;;;14.84;74.19
16595;BME280;8410;52.532;13.336;2023-03-23T04:09:57;99976.28;;;15.11;72.99
16595;BME280;8410;52.532;13.336;2023-03-23T04:12:24;99967.53;;;15.15;72.60
16595;BME280;8410;52.532;13.336;2023-03-23T04:14:51;99964.09;;;15.16;71.79
16595;BME280;8410;52.532;13.336;2023-03-23T04:17:18;99959.13;;;15.04;72.85
16595;BME280;8410;52.532;13.336;2023-03-23T04:19:45;99969.72;;;14.92;72.74
16595;BME280;8410;52.532;13.336;2023-03-23T04:22:12;99973.09;;;14.97;73.10
16595;BME280;8410;52.532;13.336;2023-03-23T04:24:41;99970.31;;;15.06;73.07
16595;BME280;8410;52.532;13.336;2023-03-23T04:27:07;99968.69;;;15.00;72.00
16595;BME280;8410;52.532;13.336;2023-03-23T04:29:34;99960.31;;;14.86;73.58
16595;BME280;8410;52.532;13.336;2023-03-23T04:32:02;99967.00;;;14.98;72.90
16595;BME280;8410;52.532;13.336;2023-03-23T04:34:28;99971.59;;;14.84;72.98
16595;BME280;8410;52.532;13.336;2023-03-23T04:36:59;99960.16;;;14.94;73.14
16595;BME280;8410;52.532;13.336;2023-03-23T04:39:25;99967.13;;;14.90;73.36
16595;BME280;8410;52.532;13.336;2023-03-23T04:41:54;99972.09;;;14.53;73.89
16595;BME280;8410;52.532;13.336;2023-03-23T04:44:20;99978.28;;;14.95;74.36
16595;BME280;8410;52.532;13.336;2023-03-23T04:46:47;99987.38;;;14.68;74.97
16595;BME280;8410;52.532;13.336;2023-03-23T04:49:16;99995.66;;;14.89;74.66
16595;BME280;8410;52.532;13.336;2023-03-23T04:51:46;99996.59;;;14.86;74.39
16595;BME280;8410;52.532;13.336;2023-03-23T04:54:13;99991.25;;;14.94;74.51
16595;BME280;8410;52.532;13.336;2023-03-23T04:56:39;100000.34;;;14.68;76.39
16595;BME280;8410;52.532;13.336;2023-03-23T04:59:07;99999.41;;;14.72;75.57
16595;BME280;8410;52.532;13.336;2023-03-23T05:01:33;100005.69;;;14.58;77.46
16595;BME280;8410;52.532;13.336;2023-03-23T05:04:01;100022.88;;;13.22;83.19
16595;BME280;8410;52.532;13.336;2023-03-23T05:06:29;100001.94;;;14.18;80.63
16595;BME280;8410;52.532;13.336;2023-03-23T05:08:55;99997.84;;;14.00;81.25
16595;BME280;8410;52.532;13.336;2023-03-23T05:11:22;99998.44;;;13.54;83.13
16595;BME280;8410;52.532;13.336;2023-03-23T05:13:48;100006.34;;;13.42;84.23
16595;BME280;8410;52.532;13.336;2023-03-23T05:16:15;99991.41;;;13.67;82.21
16595;BME280;8410;52.532;13.336;2023-03-23T05:18:41;99988.97;;;14.18;81.78
16595;BME280;8410;52.532;13.336;2023-03-23T05:21:08;99993.22;;;14.25;80.57
16595;BME280;8410;52.532;13.336;2023-03-23T05:23:36;100001.09;;;13.46;84.79
16595;BME280;8410;52.532;13.336;2023-03-23T05:26:03;100005.94;;;13.77;84.41
16595;BME280;8410;52.532;13.336;2023-03-23T05:28:29;99984.91;;;14.02;83.61
16595;BME280;8410;52.532;13.336;2023-03-23T05:30:56;99991.41;;;14.30;82.35
16595;BME280;8410;52.532;13.336;2023-03-23T05:33:23;99991.47;;;14.24;82.04
16595;BME280;8410;52.532;13.336;2023-03-23T05:35:49;99992.94;;;14.44;82.36
16595;BME280;8410;52.532;13.336;2023-03-23T05:38:15;100006.63;;;14.52;82.45
16595;BME280;8410;52.532;13.336;2023-03-23T05:40:44;100010.88;;;13.96;83.58
16595;BME280;8410;52.532;13.336;2023-03-23T05:43:10;100019.59;;;13.88;85.04
16595;BME280;8410;52.532;13.336;2023-03-23T05:45:37;100020.97;;;13.44;88.78
16595;BME280;8410;52.532;13.336;2023-03-23T05:48:04;100015.81;;;14.11;85.45
16595;BME280;8410;52.532;13.336;2023-03-23T05:50:30;100012.75;;;13.81;86.52
16595;BME280;8410;52.532;13.336;2023-03-23T05:52:56;100000.72;;;14.42;83.18
16595;BME280;8410;52.532;13.336;2023-03-23T05:55:23;100021.75;;;13.50;88.72
16595;BME280;8410;52.532;13.336;2023-03-23T05:57:51;100007.09;;;14.18;85.35
16595;BME280;8410;52.532;13.336;2023-03-23T06:00:18;100017.34;;;14.26;84.81
16595;BME280;8410;52.532;13.336;2023-03-23T06:02:48;100028.94;;;13.97;86.21
16595;BME280;8410;52.532;13.336;2023-03-23T06:05:16;100032.34;;;13.22;88.16
16595;BME280;8410;52.532;13.336;2023-03-23T06:07:43;100032.81;;;12.70;93.11
16595;BME280;8410;52.532;13.336;2023-03-23T06:10:10;100027.38;;;13.02;93.37
16595;BME280;8410;52.532;13.336;2023-03-23T06:12:37;100022.19;;;13.03;91.50
16595;BME280;8410;52.532;13.336;2023-03-23T06:15:06;100031.63;;;13.91;89.54
16595;BME280;8410;52.532;13.336;2023-03-23T06:17:33;100025.59;;;13.89;88.35
16595;BME280;8410;52.532;13.336;2023-03-23T06:20:01;100031.44;;;14.05;87.30
16595;BME280;8410;52.532;13.336;2023-03-23T06:22:29;100028.66;;;14.20;87.31
16595;BME280;8410;52.532;13.336;2023-03-23T06:24:56;100025.88;;;14.32;86.25
16595;BME280;8410;52.532;13.336;2023-03-23T06:27:22;100031.66;;;14.51;85.42
16595;BME280;8410;52.532;13.336;2023-03-23T06:29:49;100035.19;;;13.82;87.46
16595;BME280;8410;52.532;13.336;2023-03-23T06:32:17;100034.38;;;13.77;88.97
16595;BME280;8410;52.532;13.336;2023-03-23T06:34:43;100033.31;;;13.94;89.75
16595;BME280;8410;52.532;13.336;2023-03-23T06:37:11;100033.19;;;14.03;89.07
16595;BME280;8410;52.532;13.336;2023-03-23T06:39:38;100036.00;;;13.87;89.78
16595;BME280;8410;52.532;13.336;2023-03-23T06:42:04;100045.50;;;14.49;87.18
16595;BME280;8410;52.532;13.336;2023-03-23T06:44:34;100034.25;;;14.53;85.70
16595;BME280;8410;52.532;13.336;2023-03-23T06:47:01;100033.66;;;14.32;87.56
16595;BME280;8410;52.532;13.336;2023-03-23T06:49:30;100031.34;;;14.11;89.48
16595;BME280;8410;52.532;13.336;2023-03-23T06:51:56;100030.09;;;14.40;87.61
16595;BME280;8410;52.532;13.336;2023-03-23T06:54:25;100033.00;;;14.18;85.73
16595;BME280;8410;52.532;13.336;2023-03-23T06:56:52;100039.81;;;14.25;89.05
16595;BME280;8410;52.532;13.336;2023-03-23T06:59:18;100045.19;;;14.10;87.63
16595;BME280;8410;52.532;13.336;2023-03-23T07:01:45;100040.41;;;14.43;86.51
16595;BME280;8410;52.532;13.336;2023-03-23T07:04:13;100037.38;;;14.15;88.34
16595;BME280;8410;52.532;13.336;2023-03-23T07:06:42;100033.47;;;14.46;87.17
16595;BME280;8410;52.532;13.336;2023-03-23T07:09:08;100034.06;;;14.02;89.16
16595;BME280;8410;52.532;13.336;2023-03-23T07:11:36;100033.13;;;14.69;88.21
16595;BME280;8410;52.532;13.336;2023-03-23T07:14:02;100022.47;;;14.30;88.34
16595;BME280;8410;52.532;13.336;2023-03-23T07:16:29;100024.06;;;14.38;89.73
16595;BME280;8410;52.532;13.336;2023-03-23T07:18:56;99992.25;;;14.31;91.02
16595;BME280;8410;52.532;13.336;2023-03-23T07:21:22;100023.13;;;14.43;88.02
16595;BME280;8410;52.532;13.336;2023-03-23T07:23:50;100034.47;;;14.34;89.75
16595;BME280;8410;52.532;13.336;2023-03-23T07:26:16;100035.38;;;14.91;87.28
16595;BME280;8410;52.532;13.336;2023-03-23T07:28:43;100016.56;;;14.81;86.34
16595;BME280;8410;52.532;13.336;2023-03-23T07:31:11;100027.81;;;14.78;86.46
16595;BME280;8410;52.532;13.336;2023-03-23T07:33:37;100021.50;;;14.95;86.40
16595;BME280;8410;52.532;13.336;2023-03-23T07:36:04;100024.63;;;15.14;86.25
16595;BME280;8410;52.532;13.336;2023-03-23T07:38:31;100022.69;;;14.15;88.29
16595;BME280;8410;52.532;13.336;2023-03-23T07:40:59;100022.88;;;14.63;88.98
16595;BME280;8410;52.532;13.336;2023-03-23T07:43:25;100014.63;;;14.91;87.34
16595;BME280;8410;52.532;13.336;2023-03-23T07:45:52;99992.59;;;15.16;85.75
16595;BME280;8410;52.532;13.336;2023-03-23T07:48:18;99983.00;;;15.21;85.48
16595;BME280;8410;52.532;13.336;2023-03-23T07:50:45;99970.91;;;15.20;86.43
16595;BME280;8410;52.532;13.336;2023-03-23T07:53:12;99959.34;;;15.37;86.33
16595;BME280;8410;52.532;13.336;2023-03-23T07:55:38;99952.06;;;15.56;86.65
16595;BME280;8410;52.532;13.336;2023-03-23T07:58:06;99982.47;;;15.49;86.49
16595;BME280;8410;52.532;13.336;2023-03-23T08:00:33;99991.72;;;15.62;86.03
16595;BME280;8410;52.532;13.336;2023-03-23T08:03:00;100004.28;;;15.84;87.06
16595;BME280;8410;52.532;13.336;2023-03-23T08:05:27;100001.81;;;16.17;88.27
16595;BME280;8410;52.532;13.336;2023-03-23T08:07:54;100012.13;;;16.20;84.44
16595;BME280;8410;52.532;13.336;2023-03-23T08:10:22;100010.50;;;16.90;81.84
16595;BME280;8410;52.532;13.336;2023-03-23T08:12:51;100019.50;;;17.11;80.85
16595;BME280;8410;52.532;13.336;2023-03-23T08:15:19;100027.31;;;16.38;80.51
16595;BME280;8410;52.532;13.336;2023-03-23T08:17:47;100025.25;;;16.52;81.90
16595;BME280;8410;52.532;13.336;2023-03-23T08:20:14;100016.47;;;16.94;80.70
16595;BME280;8410;52.532;13.336;2023-03-23T08:22:42;100030.19;;;17.01;80.63
16595;BME280;8410;52.532;13.336;2023-03-23T08:25:14;100025.56;;;17.12;80.04
16595;BME280;8410;52.532;13.336;2023-03-23T08:27:42;100020.81;;;17.28;78.33
16595;BME280;8410;52.532;13.336;2023-03-23T08:30:10;100020.41;;;16.37;80.55
16595;BME280;8410;52.532;13.336;2023-03-23T08:32:39;100023.91;;;16.36;80.01
16595;BME280;8410;52.532;13.336;2023-03-23T08:35:06;99995.72;;;15.79;81.42
16595;BME280;8410;52.532;13.336;2023-03-23T08:37:34;99984.88;;;16.00;81.93
16595;BME280;8410;52.532;13.336;2023-03-23T08:40:00;100024.19;;;15.37;82.13
16595;BME280;8410;52.532;13.336;2023-03-23T08:42:32;100036.31;;;15.36;82.10
16595;BME280;8410;52.532;13.336;2023-03-23T08:44:58;100034.28;;;15.52;83.95
16595;BME280;8410;52.532;13.336;2023-03-23T08:47:25;100036.34;;;16.22;80.83
16595;BME280;8410;52.532;13.336;2023-03-23T08:49:53;100044.19;;;15.30;84.33
16595;BME280;8410;52.532;13.336;2023-03-23T08:52:20;100027.94;;;16.10;82.16
16595;BME280;8410;52.532;13.336;2023-03-23T08:54:46;100028.69;;;16.16;81.35
16595;BME280;8410;52.532;13.336;2023-03-23T08:57:14;100033.44;;;15.50;83.62
16595;BME280;8410;52.532;13.336;2023-03-23T08:59:41;100029.84;;;16.02;82.72
16595;BME280;8410;52.532;13.336;2023-03-23T09:02:09;100028.16;;;16.00;82.09
16595;BME280;8410;52.532;13.336;2023-03-23T09:04:37;100049.16;;;15.89;81.86
16595;BME280;8410;52.532;13.336;2023-03-23T09:07:05;100038.84;;;15.86;81.43
16595;BME280;8410;52.532;13.336;2023-03-23T09:09:32;100053.47;;;15.42;83.51
16595;BME280;8410;52.532;13.336;2023-03-23T09:11:59;100056.25;;;15.81;82.46
16595;BME280;8410;52.532;13.336;2023-03-23T09:14:25;100057.34;;;15.69;82.20
16595;BME280;8410;52.532;13.336;2023-03-23T09:16:52;100054.94;;;15.57;82.60
16595;BME280;8410;52.532;13.336;2023-03-23T09:19:19;100052.06;;;15.74;83.66
16595;BME280;8410;52.532;13.336;2023-03-23T09:21:46;100044.16;;;15.80;83.32
16595;BME280;8410;52.532;13.336;2023-03-23T09:24:13;100034.09;;;16.06;80.85
16595;BME280;8410;52.532;13.336;2023-03-23T09:26:40;100030.31;;;15.79;82.83
16595;BME280;8410;52.532;13.336;2023-03-23T09:29:06;100045.13;;;15.74;81.09
16595;BME280;8410;52.532;13.336;2023-03-23T09:31:33;100028.53;;;16.23;80.71
16595;BME280;8410;52.532;13.336;2023-03-23T09:34:02;100031.91;;;15.85;83.11
16595;BME280;8410;52.532;13.336;2023-03-23T09:36:29;100032.09;;;16.57;80.69
16595;BME280;8410;52.532;13.336;2023-03-23T09:38:57;100024.00;;;16.69;79.88
16595;BME280;8410;52.532;13.336;2023-03-23T09:41:38;100035.47;;;16.97;78.18
16595;BME280;8410;52.532;13.336;2023-03-23T09:44:17;100040.34;;;16.37;79.81
16595;BME280;8410;52.532;13.336;2023-03-23T09:46:53;100040.69;;;16.59;80.02
16595;BME280;8410;52.532;13.336;2023-03-23T09:49:26;100037.69;;;16.79;78.33
16595;BME280;8410;52.532;13.336;2023-03-23T09:51:56;100037.59;;;16.43;79.21
16595;BME280;8410;52.532;13.336;2023-03-23T09:54:26;100043.50;;;16.10;79.93
16595;BME280;8410;52.532;13.336;2023-03-23T09:56:55;100055.19;;;15.90;81.22
16595;BME280;8410;52.532;13.336;2023-03-23T09:59:27;100049.94;;;16.70;79.51
16595;BME280;8410;52.532;13.336;2023-03-23T10:01:58;100044.28;;;16.54;79.96
16595;BME280;8410;52.532;13.336;2023-03-23T10:04:33;100040.97;;;16.85;78.35
16595;BME280;8410;52.532;13.336;2023-03-23T10:07:10;100050.47;;;16.86;78.82
16595;BME280;8410;52.532;13.336;2023-03-23T10:09:37;100056.38;;;16.93;76.92
16595;BME280;8410;52.532;13.336;2023-03-23T10:12:12;100047.09;;;17.17;76.33
16595;BME280;8410;52.532;13.336;2023-03-23T10:14:52;100048.69;;;16.88;77.56
16595;BME280;8410;52.532;13.336;2023-03-23T10:17:23;100041.38;;;17.37;75.73
16595;BME280;8410;52.532;13.336;2023-03-23T10:19:57;100036.34;;;17.29;75.79
16595;BME280;8410;52.532;13.336;2023-03-23T10:22:30;100040.50;;;17.36;74.02
16595;BME280;8410;52.532;13.336;2023-03-23T10:25:03;100033.84;;;17.26;75.57
16595;BME280;8410;52.532;13.336;2023-03-23T10:27:39;100022.66;;;16.52;75.92
16595;BME280;8410;52.532;13.336;2023-03-23T10:30:15;100029.44;;;16.95;74.68
16595;BME280;8410;52.532;13.336;2023-03-23T10:32:47;100032.47;;;17.13;75.06
16595;BME280;8410;52.532;13.336;2023-03-23T10:35:19;100021.00;;;17.20;75.69
16595;BME280;8410;52.532;13.336;2023-03-23T10:37:48;100020.44;;;17.09;74.38
16595;BME280;8410;52.532;13.336;2023-03-23T10:40:21;100021.22;;;17.12;74.20
16595;BME280;8410;52.532;13.336;2023-03-23T10:42:50;100021.78;;;17.56;73.92
16595;BME280;8410;52.532;13.336;2023-03-23T10:45:21;100027.75;;;17.60;73.16
16595;BME280;8410;52.532;13.336;2023-03-23T10:47:51;100011.31;;;17.89;71.04
16595;BME280;8410;52.532;13.336;2023-03-23T10:50:23;100025.03;;;17.63;72.97
16595;BME280;8410;52.532;13.336;2023-03-23T10:52:52;100022.97;;;18.07;71.32
16595;BME280;8410;52.532;13.336;2023-03-23T10:55:22;100026.09;;;16.90;73.06
16595;BME280;8410;52.532;13.336;2023-03-23T10:58:00;100025.09;;;16.96;73.26
16595;BME280;8410;52.532;13.336;2023-03-23T11:00:28;100022.41;;;16.99;74.05
16595;BME280;8410;52.532;13.336;2023-03-23T11:03:00;100018.84;;;16.67;73.42
16595;BME280;8410;52.532;13.336;2023-03-23T11:05:34;100031.53;;;17.15;72.78
16595;BME280;8410;52.532;13.336;2023-03-23T11:08:01;100025.69;;;16.71;72.12
16595;BME280;8410;52.532;13.336;2023-03-23T11:10:35;100037.00;;;17.05;72.59
16595;BME280;8410;52.532;13.336;2023-03-23T11:13:03;100032.88;;;16.60;74.64
16595;BME280;8410;52.532;13.336;2023-03-23T11:15:37;100041.34;;;16.31;75.08
16595;BME280;8410;52.532;13.336;2023-03-23T11:18:06;100046.09;;;16.88;72.92
16595;BME280;8410;52.532;13.336;2023-03-23T11:20:36;100040.06;;;16.10;73.80
16595;BME280;8410;52.532;13.336;2023-03-23T11:23:19;100046.38;;;16.74;72.59
16595;BME280;8410;52.532;13.336;2023-03-23T11:25:54;100053.50;;;17.04;72.41
16595;BME280;8410;52.532;13.336;2023-03-23T11:28:27;100051.50;;;17.15;71.69
16595;BME280;8410;52.532;13.336;2023-03-23T11:30:54;100049.88;;;17.11;71.43
16595;BME280;8410;52.532;13.336;2023-03-23T11:33:21;100054.25;;;17.41;70.75
16595;BME280;8410;52.532;13.336;2023-03-23T11:35:52;100053.78;;;17.58;70.84
16595;BME280;8410;52.532;13.336;2023-03-23T11:38:21;100055.06;;;17.11;71.53
16595;BME280;8410;52.532;13.336;2023-03-23T11:40:51;100062.59;;;17.22;70.74
16595;BME280;8410;52.532;13.336;2023-03-23T11:43:19;100059.66;;;17.98;68.73
16595;BME280;8410;52.532;13.336;2023-03-23T11:45:54;100064.38;;;17.19;69.85
16595;BME280;8410;52.532;13.336;2023-03-23T11:48:28;100051.13;;;16.94;70.72
16595;BME280;8410;52.532;13.336;2023-03-23T11:51:01;100057.56;;;16.80;70.48
16595;BME280;8410;52.532;13.336;2023-03-23T11:53:37;100054.91;;;17.17;71.01
16595;BME280;8410;52.532;13.336;2023-03-23T11:56:11;100060.34;;;17.73;68.98
16595;BME280;8410;52.532;13.336;2023-03-23T11:58:38;100050.34;;;17.58;69.14
16595;BME280;8410;52.532;13.336;2023-03-23T12:01:21;100059.72;;;17.32;70.98
16595;BME280;8410;52.532;13.336;2023-03-23T12:06:57;100062.47;;;17.59;69.75
16595;BME280;8410;52.532;13.336;2023-03-23T12:09:38;100061.09;;;17.46;69.78
16595;BME280;8410;52.532;13.336;2023-03-23T12:12:16;100063.34;;;17.91;68.44
16595;BME280;8410;52.532;13.336;2023-03-23T12:14:51;100056.53;;;16.49;71.17
16595;BME280;8410;52.532;13.336;2023-03-23T12:17:28;100056.03;;;17.07;69.88
16595;BME280;8410;52.532;13.336;2023-03-23T12:20:06;100068.56;;;17.25;69.34
16595;BME280;8410;52.532;13.336;2023-03-23T12:22:48;100059.50;;;17.40;68.74
16595;BME280;8410;52.532;13.336;2023-03-23T12:25:49;100058.63;;;16.69;71.16
16595;BME280;8410;52.532;13.336;2023-03-23T12:28:29;100059.81;;;16.95;70.28
16595;BME280;8410;52.532;13.336;2023-03-23T12:31:03;100052.31;;;16.81;71.34
16595;BME280;8410;52.532;13.336;2023-03-23T12:33:42;100039.25;;;17.51;68.84
16595;BME280;8410;52.532;13.336;2023-03-23T12:36:19;100047.91;;;16.85;70.69
16595;BME280;8410;52.532;13.336;2023-03-23T12:39:08;100037.75;;;17.42;68.25
16595;BME280;8410;52.532;13.336;2023-03-23T12:41:41;100024.59;;;16.82;69.06
16595;BME280;8410;52.532;13.336;2023-03-23T12:44:12;100036.03;;;17.41;68.42
16595;BME280;8410;52.532;13.336;2023-03-23T12:47:02;100030.56;;;17.52;67.81
16595;BME280;8410;52.532;13.336;2023-03-23T12:49:35;100022.63;;;17.57;67.35
16595;BME280;8410;52.532;13.336;2023-03-23T12:52:10;100011.16;;;17.31;68.54
16595;BME280;8410;52.532;13.336;2023-03-23T12:54:41;99996.31;;;18.25;66.81
16595;BME280;8410;52.532;13.336;2023-03-23T12:57:17;99993.59;;;18.02;66.25
16595;BME280;8410;52.532;13.336;2023-03-23T12:59:48;100010.78;;;18.36;64.93
16595;BME280;8410;52.532;13.336;2023-03-23T13:02:20;100026.47;;;17.44;67.31
16595;BME280;8410;52.532;13.336;2023-03-23T13:04:54;100021.97;;;17.81;67.10
16595;BME280;8410;52.532;13.336;2023-03-23T13:07:26;100030.34;;;18.21;65.75
16595;BME280;8410;52.532;13.336;2023-03-23T13:10:01;100025.88;;;18.24;66.51